.
WxDataArchive / Data Records for 2014-03-13
2014-03-12 March 2014 2014-03-14

Data Records for Thursday, 13 March 2014

Time	Temp	Chill	HIndex	Humid	Dewpt	 Wind 	HiWind	WindDir	Rain 	Barom
-----	----	-----	------	-----	-----	------	------	-------	-----	-----
00:00	14.3	14.3	14.3	81	9.6	0	0	---	0.00	30.049 
00:05	14.3	14.3	14.3	81	9.6	0	0	---	0.00	30.049 
00:10	14.1	14.1	14.1	81	9.4	0	0	---	0.00	30.049 
00:15	14.1	14.1	14.1	81	9.4	0	0	---	0.00	30.045 
00:20	14.1	14.1	14.1	80	9.1	0	0	---	0.00	30.045 
00:25	14.1	14.1	14.1	80	9.1	0	0	---	0.00	30.045 
00:30	14.0	14.0	14.0	80	9.0	0	0	---	0.00	30.046 
00:35	13.8	13.8	13.8	80	8.8	0	0	---	0.00	30.046 
00:40	13.8	13.8	13.8	80	8.8	0	0	---	0.00	30.046 
00:45	13.6	13.6	13.6	80	8.6	0	0	---	0.00	30.048 
00:50	13.6	13.6	13.6	80	8.6	0	0	---	0.00	30.048 
00:55	13.5	13.5	13.5	80	8.5	0	0	---	0.00	30.048 
01:00	13.5	13.5	13.5	80	8.5	0	0	---	0.00	30.050 
01:05	13.3	13.3	13.3	80	8.3	0	0	---	0.00	30.050 
01:10	13.3	13.3	13.3	80	8.3	0	0	---	0.00	30.050 
01:15	13.1	13.1	13.1	80	8.1	0	0	---	0.00	30.057 
01:20	13.1	13.1	13.1	80	8.1	0	0	---	0.00	30.057 
01:25	12.9	12.9	12.9	80	7.9	0	0	---	0.00	30.057 
01:30	12.8	12.8	12.8	80	7.8	0	0	---	0.00	30.059 
01:35	12.8	12.8	12.8	80	7.8	0	0	---	0.00	30.059 
01:40	12.6	12.6	12.6	80	7.6	0	0	---	0.00	30.059 
01:45	12.4	12.4	12.4	80	7.4	0	0	---	0.00	30.059 
01:50	12.4	12.4	12.4	80	7.4	0	0	---	0.00	30.059 
01:55	12.3	12.3	12.3	80	7.3	0	0	---	0.00	30.059 
02:00	12.1	12.1	12.1	80	7.1	0	0	---	0.00	30.062 
02:05	11.9	11.9	11.9	80	6.9	0	0	---	0.00	30.062 
02:10	11.7	11.7	11.7	80	6.7	0	0	---	0.00	30.062 
02:15	11.6	11.6	11.6	80	6.6	0	0	---	0.00	30.069 
02:20	11.2	11.2	11.2	80	6.3	0	0	---	0.00	30.069 
02:25	11.1	11.1	11.1	80	6.2	0	0	---	0.00	30.069 
02:30	10.9	10.9	10.9	80	6.0	0	0	---	0.00	30.077 
02:35	10.7	10.7	10.7	80	5.8	0	0	---	0.00	30.077 
02:40	10.4	10.4	10.4	80	5.5	0	0	---	0.00	30.077 
02:45	10.2	10.2	10.2	80	5.3	0	0	---	0.00	30.078 
02:50	10.0	10.0	10.0	80	5.1	0	0	---	0.00	30.078 
02:55	9.7	9.7	9.7	80	4.8	0	0	---	0.00	30.078 
03:00	9.3	9.3	9.3	80	4.4	0	0	---	0.00	30.081 
03:05	9.2	9.2	9.2	80	4.3	0	0	---	0.00	30.081 
03:10	8.8	8.8	8.8	80	3.9	0	0	---	0.00	30.081 
03:15	8.6	8.6	8.6	81	4.0	0	0	---	0.00	30.081 
03:20	8.6	8.6	8.6	81	4.0	0	0	---	0.00	30.081 
03:25	8.4	8.4	8.4	81	3.8	0	0	---	0.00	30.081 
03:30	8.4	8.4	8.4	81	3.8	0	0	---	0.00	30.083 
03:35	8.3	8.3	8.3	81	3.7	0	0	---	0.00	30.083 
03:40	8.1	8.1	8.1	81	3.5	0	0	---	0.00	30.083 
03:45	7.9	7.9	7.9	81	3.3	0	0	---	0.00	30.083 
03:50	7.7	7.7	7.7	81	3.1	0	0	---	0.00	30.083 
03:55	7.7	7.7	7.7	81	3.1	0	0	---	0.00	30.083 
04:00	7.6	7.6	7.6	81	3.0	0	0	---	0.00	30.091 
04:05	7.6	7.6	7.6	81	3.0	0	0	---	0.00	30.091 
04:10	7.6	7.6	7.6	82	3.3	0	0	---	0.00	30.091 
04:15	7.6	7.6	7.6	82	3.3	0	0	---	0.00	30.091 
04:20	7.6	7.6	7.6	82	3.3	0	0	---	0.00	30.091 
04:25	7.6	7.6	7.6	82	3.3	0	0	---	0.00	30.091 
04:30	7.4	7.4	7.4	82	3.1	0	0	---	0.00	30.096 
04:35	7.6	7.6	7.6	82	3.3	0	0	---	0.00	30.096 
04:40	7.6	7.6	7.6	82	3.3	0	0	---	0.00	30.096 
04:45	7.6	7.6	7.6	82	3.3	0	0	---	0.00	30.095 
04:50	7.4	7.4	7.4	81	2.8	0	0	---	0.00	30.095 
04:55	7.4	7.4	7.4	81	2.8	0	0	---	0.00	30.095 
05:00	7.4	7.4	7.4	81	2.8	0	0	---	0.00	30.098 
05:05	7.4	7.4	7.4	81	2.8	0	0	---	0.00	30.098 
05:10	7.0	7.0	7.0	81	2.4	0	0	---	0.00	30.098 
05:15	6.9	6.9	6.9	81	2.3	0	0	---	0.00	30.100 
05:20	6.7	6.7	6.7	81	2.1	0	0	---	0.00	30.100 
05:25	6.7	6.7	6.7	81	2.1	0	0	---	0.00	30.100 
05:30	6.5	6.5	6.5	81	1.9	0	0	---	0.00	30.106 
05:35	6.3	6.3	6.3	80	1.5	0	0	---	0.00	30.106 
05:40	6.1	6.1	6.1	80	1.3	0	0	---	0.00	30.106 
05:45	6.0	6.0	6.0	80	1.2	0	0	---	0.00	30.105 
05:50	5.8	5.8	5.8	80	1.0	0	0	---	0.00	30.105 
05:55	5.6	5.6	5.6	80	0.8	0	0	---	0.00	30.105 
06:00	5.4	5.4	5.4	80	0.6	0	0	---	0.00	30.116 
06:05	5.2	5.2	5.2	80	0.4	0	0	---	0.00	30.116 
06:10	5.0	5.0	5.0	80	0.2	0	0	---	0.00	30.116 
06:15	4.8	4.8	4.8	80	0.0	0	0	---	0.00	30.124 
06:20	4.7	4.7	4.7	80	-0.1	0	0	---	0.00	30.124 
06:25	4.5	4.5	4.5	80	-0.3	0	0	---	0.00	30.124 
06:30	4.3	4.3	4.3	80	-0.5	0	0	---	0.00	30.128 
06:35	4.3	4.3	4.3	80	-0.5	0	0	---	0.00	30.128 
06:40	3.9	3.9	3.9	80	-0.9	0	0	---	0.00	30.128 
06:45	3.9	3.9	3.9	80	-0.9	0	0	---	0.00	30.136 
06:50	3.7	3.7	3.7	81	-0.8	0	0	---	0.00	30.136 
06:55	3.5	3.5	3.5	81	-1.0	0	0	---	0.00	30.136 
07:00	3.5	3.5	3.5	81	-1.0	0	0	---	0.00	30.138 
07:05	3.4	3.4	3.4	81	-1.1	0	0	---	0.00	30.138 
07:10	3.2	3.2	3.2	81	-1.3	0	0	---	0.00	30.138 
07:15	3.2	3.2	3.2	81	-1.3	0	0	---	0.00	30.158 
07:20	3.2	3.2	3.2	81	-1.3	0	0	---	0.00	30.158 
07:25	3.2	3.2	3.2	81	-1.3	0	0	---	0.00	30.158 
07:30	3.2	3.2	3.2	81	-1.3	0	0	---	0.00	30.166 
07:35	3.4	3.4	3.4	81	-1.1	0	0	---	0.00	30.166 
07:40	3.7	3.7	3.7	82	-0.5	0	0	---	0.00	30.166 
07:45	3.9	3.9	3.9	82	-0.3	0	0	---	0.00	30.173 
07:50	4.1	4.1	4.1	82	-0.1	0	0	---	0.00	30.173 
07:55	4.1	4.1	4.1	81	-0.4	0	0	---	0.00	30.173 
08:00	3.9	3.9	3.9	81	-0.6	0	0	---	0.00	30.180 
08:05	3.7	3.7	3.7	81	-0.8	0	0	---	0.00	30.180 
08:10	3.5	3.5	3.5	81	-1.0	0	0	---	0.00	30.180 
08:15	3.5	3.5	3.5	81	-1.0	0	0	---	0.00	30.192 
08:20	3.5	3.5	3.5	81	-1.0	0	0	---	0.00	30.192 
08:25	3.5	3.5	3.5	81	-1.0	0	2	45	0.00	30.192 
08:30	3.7	3.7	3.7	82	-0.5	0	0	---	0.00	30.204 
08:35	3.9	3.9	3.9	82	-0.3	0	0	---	0.00	30.204 
08:40	4.3	4.3	4.3	82	0.0	0	0	---	0.00	30.204 
08:45	4.7	4.7	4.7	82	0.4	0	0	---	0.00	30.205 
08:50	5.2	5.2	5.2	82	0.9	0	1	45	0.00	30.205 
08:55	5.8	5.8	5.8	82	1.5	0	0	---	0.00	30.205 
09:00	6.3	6.3	6.3	82	2.0	0	0	---	0.00	30.209 
09:05	6.7	6.7	6.7	82	2.4	0	0	---	0.00	30.209 
09:10	7.0	7.0	7.0	82	2.7	0	0	---	0.00	30.209 
09:15	7.4	7.4	7.4	82	3.1	0	1	45	0.00	30.214 
09:20	7.9	7.9	7.9	81	3.3	0	1	45	0.00	30.214 
09:25	8.3	8.3	8.3	81	3.7	0	1	45	0.00	30.214 
09:30	8.6	8.6	8.6	81	4.0	0	1	45	0.00	30.215 
09:35	9.0	9.0	9.0	80	4.1	0	1	45	0.00	30.215 
09:40	9.3	9.3	9.3	80	4.4	0	1	45	0.00	30.215 
09:45	9.7	9.7	9.7	79	4.5	0	1	45	0.00	30.216 
09:50	10.0	10.0	10.0	79	4.8	0	1	45	0.00	30.216 
09:55	10.4	10.4	10.4	78	4.9	0	1	45	0.00	30.216 
10:00	10.7	10.7	10.7	78	5.2	0	1	45	0.00	30.220 
10:05	11.2	11.2	11.2	77	5.4	0	1	45	0.00	30.220 
10:10	11.9	11.9	11.9	78	6.4	0	0	---	0.00	30.220 
10:15	12.9	12.9	12.9	78	7.4	0	1	45	0.00	30.217 
10:20	13.5	13.5	13.5	76	7.4	0	1	45	0.00	30.217 
10:25	14.0	14.0	14.0	75	7.6	0	1	45	0.00	30.217 
10:30	14.4	14.4	14.4	75	8.0	0	1	45	0.00	30.222 
10:35	15.6	15.6	15.6	75	9.1	0	1	45	0.00	30.222 
10:40	16.9	16.9	16.9	76	10.7	0	0	---	0.00	30.222 
10:45	18.3	18.3	18.3	75	11.7	0	3	45	0.00	30.211 
10:50	19.5	19.5	19.5	73	12.3	0	1	45	0.00	30.211 
10:55	19.9	19.9	19.9	68	11.1	1	2	45	0.00	30.211 
11:00	19.7	19.7	19.7	68	10.9	0	2	45	0.00	30.206 
11:05	19.9	19.9	19.9	67	10.7	0	3	90	0.00	30.206 
11:10	19.9	19.9	19.9	66	10.4	0	2	90	0.00	30.206 
11:15	20.0	20.0	20.0	66	10.5	0	2	90	0.00	30.208 
11:20	20.5	20.5	20.5	65	10.6	0	1	90	0.00	30.208 
11:25	21.4	21.4	21.4	66	11.8	0	2	90	0.00	30.208 
11:30	22.1	22.1	22.1	66	12.5	0	1	90	0.01	30.208 
11:35	22.7	22.7	22.7	62	11.7	0	2	90	0.00	30.208 
11:40	22.9	22.9	22.9	62	11.9	0	2	90	0.01	30.208 
11:45	22.5	22.5	22.5	62	11.5	1	2	90	0.01	30.207 
11:50	22.7	22.7	22.7	62	11.7	0	2	90	0.00	30.207 
11:55	23.3	23.3	23.3	62	12.2	0	1	90	0.01	30.207 
12:00	23.3	23.3	23.3	60	11.5	0	2	90	0.01	30.212 
12:05	23.5	23.5	23.5	59	11.3	0	3	90	0.00	30.212 
12:10	23.5	23.5	23.5	58	10.9	0	2	90	0.01	30.212 
12:15	23.5	23.5	23.5	60	11.7	0	1	90	0.00	30.220 
12:20	23.2	23.2	23.2	54	9.1	0	2	68	0.01	30.220 
12:25	22.4	22.4	22.4	53	7.9	1	2	68	0.00	30.220 
12:30	21.9	21.9	21.9	53	7.4	1	3	315	0.01	30.222 
12:35	21.9	21.9	21.9	56	8.6	0	2	315	0.00	30.222 
12:40	22.5	22.5	22.5	56	9.2	0	2	315	0.01	30.222 
12:45	22.7	22.7	22.7	54	8.6	1	3	270	0.00	30.222 
12:50	22.9	22.9	22.9	57	10.0	1	2	270	0.01	30.222 
12:55	22.9	22.9	22.9	57	10.0	0	2	270	0.00	30.222 
13:00	23.0	23.0	23.0	58	10.5	1	3	270	0.01	30.217 
13:05	23.2	23.2	23.2	58	10.6	1	3	270	0.00	30.217 
13:10	23.5	23.5	23.5	60	11.7	0	2	270	0.01	30.217 
13:15	24.1	24.1	24.1	60	12.3	1	3	270	0.00	30.214 
13:20	24.2	24.2	24.2	60	12.3	0	2	270	0.01	30.214 
13:25	24.5	24.5	24.5	59	12.3	1	3	270	0.00	30.214 
13:30	24.5	24.5	24.5	59	12.3	0	3	270	0.01	30.208 
13:35	24.7	24.7	24.7	58	12.1	2	4	270	0.00	30.208 
13:40	24.2	24.2	24.2	58	11.6	1	5	90	0.01	30.208 
13:45	24.4	24.4	24.4	60	12.5	1	3	90	0.00	30.200 
13:50	24.5	24.5	24.5	60	12.6	0	2	90	0.00	30.200 
13:55	24.5	24.5	24.5	58	11.9	1	3	90	0.01	30.200 
14:00	24.4	24.4	24.4	58	11.8	1	3	90	0.00	30.201 
14:05	24.7	24.7	24.7	58	12.1	1	3	270	0.01	30.201 
14:10	25.3	25.3	25.3	58	12.6	0	3	112	0.00	30.201 
14:15	25.4	25.4	25.4	55	11.5	1	5	135	0.01	30.195 
14:20	25.1	25.1	25.1	56	11.6	0	3	112	0.00	30.195 
14:25	25.4	25.4	25.4	54	11.1	0	2	112	0.01	30.195 
14:30	25.7	25.7	25.7	55	11.8	0	2	112	0.00	30.180 
14:35	25.8	25.8	25.8	53	11.1	1	3	248	0.01	30.180 
14:40	25.8	25.8	25.8	56	12.3	1	3	248	0.00	30.180 
14:45	26.0	26.0	26.0	55	12.1	1	3	248	0.00	30.178 
14:50	26.1	26.1	26.1	57	13.0	0	1	248	0.01	30.178 
14:55	26.3	26.3	26.3	54	11.9	1	4	248	0.00	30.178 
15:00	26.0	26.0	26.0	54	11.7	1	3	90	0.00	30.169 
15:05	26.0	26.0	26.0	53	11.2	1	3	90	0.01	30.169 
15:10	25.7	25.7	25.7	51	10.1	1	5	90	0.00	30.169 
15:15	25.4	25.4	25.4	53	10.7	1	3	90	0.00	30.164 
15:20	25.7	25.7	25.7	54	11.4	1	2	90	0.00	30.164 
15:25	25.4	25.4	25.4	50	9.4	1	6	90	0.01	30.164 
15:30	25.1	25.1	25.1	52	10.0	1	5	112	0.00	30.153 
15:35	25.0	25.0	25.0	54	10.7	1	2	90	0.00	30.153 
15:40	25.0	25.0	25.0	52	9.9	1	4	270	0.00	30.153 
15:45	25.1	25.1	25.1	53	10.4	1	3	270	0.00	30.151 
15:50	25.3	25.3	25.3	56	11.8	0	3	270	0.01	30.151 
15:55	25.8	25.8	25.8	56	12.3	1	4	270	0.00	30.151 
16:00	26.0	26.0	26.0	54	11.7	1	3	270	0.00	30.148 
16:05	26.3	26.3	26.3	55	12.4	0	3	270	0.00	30.148 
16:10	26.6	26.6	26.6	55	12.6	0	2	270	0.00	30.148 
16:15	26.7	26.7	26.7	54	12.3	1	2	270	0.00	30.139 
16:20	26.4	26.4	26.4	55	12.5	1	2	270	0.01	30.139 
16:25	26.4	26.4	26.4	54	12.0	0	2	270	0.00	30.139 
16:30	26.6	26.6	26.6	56	13.0	0	4	90	0.00	30.132 
16:35	26.6	26.6	26.6	54	12.2	1	5	90	0.00	30.132 
16:40	26.3	26.3	26.3	55	12.4	1	4	22	0.00	30.132 
16:45	26.0	26.0	26.0	55	12.1	1	5	68	0.00	30.135 
16:50	26.0	26.0	26.0	56	12.5	1	4	68	0.00	30.135 
16:55	26.1	26.1	26.1	59	13.8	0	3	68	0.00	30.135 
17:00	26.3	26.3	26.3	57	13.2	1	5	90	0.00	30.130 
17:05	26.1	26.1	26.1	56	12.6	1	3	315	0.00	30.130 
17:10	26.0	26.0	26.0	57	12.9	1	3	68	0.00	30.130 
17:15	26.0	26.0	26.0	58	13.3	1	4	248	0.01	30.128 
17:20	26.0	26.0	26.0	59	13.7	1	4	248	0.00	30.128 
17:25	26.0	26.0	26.0	59	13.7	1	6	248	0.00	30.128 
17:30	26.0	26.0	26.0	59	13.7	1	4	248	0.00	30.121 
17:35	26.0	26.0	26.0	58	13.3	1	5	248	0.00	30.121 
17:40	26.0	26.0	26.0	59	13.7	1	5	90	0.00	30.121 
17:45	26.0	26.0	26.0	60	14.0	0	2	68	0.00	30.115 
17:50	26.1	26.1	26.1	61	14.5	1	5	90	0.00	30.115 
17:55	26.3	26.3	26.3	62	15.1	0	2	45	0.00	30.115 
18:00	26.4	26.4	26.4	62	15.2	1	6	112	0.00	30.098 
18:05	26.4	26.4	26.4	63	15.5	1	4	112	0.00	30.098 
18:10	26.6	26.6	26.6	64	16.1	0	4	112	0.00	30.098 
18:15	26.7	26.7	26.7	65	16.5	0	2	112	0.00	30.090 
18:20	26.7	26.7	26.7	64	16.2	1	4	112	0.00	30.090 
18:25	26.9	26.9	26.9	65	16.7	0	2	112	0.00	30.090 
18:30	26.9	26.9	26.9	65	16.7	1	5	112	0.00	30.086 
18:35	26.9	26.9	26.9	65	16.7	1	4	112	0.00	30.086 
18:40	26.9	26.9	26.9	65	16.7	0	2	112	0.00	30.086 
18:45	26.9	26.9	26.9	66	17.1	0	2	112	0.00	30.082 
18:50	26.9	26.9	26.9	66	17.1	0	4	112	0.00	30.082 
18:55	26.9	26.9	26.9	67	17.4	0	2	112	0.00	30.082 
19:00	27.0	27.0	27.0	66	17.2	1	4	112	0.00	30.081 
19:05	27.0	27.0	27.0	68	17.9	0	1	112	0.00	30.081 
19:10	27.0	27.0	27.0	68	17.9	0	2	112	0.00	30.081 
19:15	27.0	27.0	27.0	69	18.2	0	2	112	0.00	30.075 
19:20	27.2	27.2	27.2	69	18.4	0	1	112	0.00	30.075 
19:25	27.2	27.2	27.2	68	18.1	0	3	112	0.00	30.075 
19:30	27.2	27.2	27.2	69	18.4	1	3	112	0.00	30.073 
19:35	27.3	27.3	27.3	69	18.5	1	3	112	0.00	30.073 
19:40	27.5	27.5	27.5	69	18.7	1	3	90	0.00	30.073 
19:45	27.5	27.5	27.5	69	18.7	0	3	112	0.00	30.064 
19:50	27.6	27.6	27.6	70	19.1	0	1	112	0.00	30.064 
19:55	27.6	27.6	27.6	71	19.4	0	3	112	0.00	30.064 
20:00	27.8	27.8	27.8	71	19.6	0	4	112	0.00	30.056 
20:05	27.9	27.9	27.9	72	20.1	0	1	112	0.00	30.056 
20:10	28.1	28.1	28.1	72	20.3	0	2	112	0.00	30.056 
20:15	28.2	28.2	28.2	73	20.7	0	2	112	0.00	30.051 
20:20	28.2	28.2	28.2	73	20.7	0	1	112	0.00	30.051 
20:25	28.4	28.4	28.4	73	20.9	0	4	112	0.00	30.051 
20:30	28.5	28.5	28.5	73	21.0	0	2	90	0.00	30.042 
20:35	28.7	28.7	28.7	73	21.2	0	3	90	0.00	30.042 
20:40	28.8	28.8	28.8	73	21.3	0	2	112	0.00	30.042 
20:45	28.8	28.8	28.8	73	21.3	0	2	68	0.00	30.045 
20:50	28.7	28.7	28.7	73	21.2	0	1	22	0.00	30.045 
20:55	28.4	28.4	28.4	72	20.5	0	3	315	0.00	30.045 
21:00	28.2	28.2	28.2	73	20.7	0	1	315	0.00	30.043 
21:05	28.1	28.1	28.1	73	20.6	0	1	315	0.00	30.043 
21:10	27.9	27.9	27.9	73	20.4	0	1	315	0.00	30.043 
21:15	27.8	27.8	27.8	73	20.3	0	1	315	0.00	30.036 
21:20	27.6	27.6	27.6	74	20.4	0	2	315	0.00	30.036 
21:25	27.5	27.5	27.5	74	20.3	0	1	315	0.00	30.036 
21:30	27.5	27.5	27.5	74	20.3	0	1	315	0.00	30.032 
21:35	27.5	27.5	27.5	74	20.3	0	1	315	0.00	30.032 
21:40	27.5	27.5	27.5	75	20.6	0	1	292	0.00	30.032 
21:45	27.5	27.5	27.5	75	20.6	0	1	292	0.00	30.032 
21:50	27.5	27.5	27.5	75	20.6	0	1	292	0.00	30.032 
21:55	27.5	27.5	27.5	75	20.6	0	1	292	0.00	30.032 
22:00	27.5	27.5	27.5	76	20.9	0	2	292	0.00	30.032 
22:05	27.6	27.6	27.6	76	21.0	0	2	292	0.00	30.032 
22:10	27.6	27.6	27.6	76	21.0	0	1	292	0.00	30.032 
22:15	27.6	27.6	27.6	76	21.0	0	1	292	0.00	30.022 
22:20	27.5	27.5	27.5	77	21.3	0	1	292	0.00	30.022 
22:25	27.6	27.6	27.6	77	21.4	0	2	270	0.00	30.022 
22:30	27.6	27.6	27.6	77	21.4	0	1	270	0.00	30.022 
22:35	27.6	27.6	27.6	77	21.4	0	1	270	0.00	30.022 
22:40	27.6	27.6	27.6	77	21.4	0	2	270	0.00	30.022 
22:45	27.6	27.6	27.6	77	21.4	0	1	270	0.00	30.018 
22:50	27.5	27.5	27.5	77	21.3	0	1	270	0.00	30.018 
22:55	27.5	27.5	27.5	77	21.3	0	2	270	0.00	30.018 
23:00	27.5	27.5	27.5	77	21.3	0	1	202	0.00	30.013 
23:05	27.5	27.5	27.5	77	21.3	0	1	202	0.00	30.013 
23:10	27.6	27.6	27.6	78	21.7	0	2	202	0.00	30.013 
23:15	27.8	27.8	27.8	77	21.5	0	2	202	0.00	30.005 
23:20	27.8	27.8	27.8	77	21.5	0	1	202	0.00	30.005 
23:25	27.9	27.9	27.9	77	21.6	0	1	202	0.00	30.005 
23:30	27.9	27.9	27.9	77	21.6	0	1	202	0.00	30.000 
23:35	27.9	27.9	27.9	77	21.6	0	3	202	0.00	30.000 
23:40	28.1	28.1	28.1	77	21.8	0	2	202	0.00	30.000 
23:45	28.1	28.1	28.1	77	21.8	0	1	202	0.00	29.998 
23:50	28.1	28.1	28.1	77	21.8	0	2	202	0.00	29.998 
23:55	28.2	28.2	28.2	77	21.9	0	2	202	0.00	29.998 

CoCoRaHS
IN-AL-39
A2 Web Hosting
Creative Commons License
GoDaddy
search engine by freefind advanced

loaded 2018-11-13 17:06:16 • last modified 2010-11-18 10:43:29
Privacy PolicyDisclaimer
• wx.awcolley.com is powered by PmWiki v.2002016 •
• all content (unless otherwise noted) © 2018 A W Colley